Time;durP1;ratioP1;P1;durP2;ratioP2;P2;SDS_P1;SDS_P2;PMS_P1;PMS_P2;Temp;Humidity;BMP_temperature;BMP_pressure;BME280_temperature;BME280_humidity;BME280_pressure;Samples;Min_cycle;Max_cycle;Signal;HPM_P1;HPM_P2
2022/09/25 00:01:12;;;;;;;35.88;22.45;;;12.60;99.90;;;;;;5029411;28;20056;-68
2022/09/25 00:03:39;;;;;;;32.45;23.00;;;12.70;99.90;;;;;;5030194;28;20030;-71
2022/09/25 00:06:14;;;;;;;32.40;19.85;;;12.70;99.90;;;;;;5031921;28;20085;-72
2022/09/25 00:08:41;;;;;;;31.73;20.45;;;12.70;99.90;;;;;;5016571;28;20490;-71
2022/09/25 00:11:10;;;;;;;30.38;20.85;;;12.70;99.90;;;;;;5032078;28;20029;-72
2022/09/25 00:13:38;;;;;;;30.40;19.80;;;12.60;99.90;;;;;;5032116;28;20349;-71
2022/09/25 00:16:04;;;;;;;34.13;19.80;;;12.60;99.90;;;;;;5032484;28;20475;-72
2022/09/25 00:21:15;;;;;;;36.05;22.88;;;12.50;99.90;;;;;;5027061;28;20037;-70
2022/09/25 00:23:43;;;;;;;38.80;23.25;;;12.40;99.90;;;;;;5031510;28;20026;-71
2022/09/25 00:26:10;;;;;;;62.58;39.53;;;;;;;;;;5035720;28;20450;-72
2022/09/25 00:28:37;;;;;;;45.50;28.42;;;12.30;99.90;;;;;;5035964;28;20026;-71
2022/09/25 00:31:05;;;;;;;42.67;27.42;;;12.40;99.90;;;;;;5025797;28;20044;-71
2022/09/25 00:33:35;;;;;;;41.40;26.88;;;12.40;99.90;;;;;;5030757;28;20022;-69
2022/09/25 00:36:05;;;;;;;42.97;28.65;;;12.40;99.90;;;;;;5030855;28;20025;-70
2022/09/25 00:38:32;;;;;;;45.53;28.70;;;12.40;99.90;;;;;;5033332;28;20033;-71
2022/09/25 00:40:58;;;;;;;40.47;27.38;;;12.50;99.90;;;;;;5025766;28;20156;-72
2022/09/25 00:43:43;;;;;;;58.13;35.88;;;12.40;99.90;;;;;;5018016;28;20480;-69
2022/09/25 00:46:30;;;;;;;50.38;31.85;;;12.40;99.90;;;;;;5035265;28;20033;-70
2022/09/25 00:49:13;;;;;;;54.22;32.03;;;12.40;99.90;;;;;;5030046;28;20387;-72
2022/09/25 00:51:44;;;;;;;;;;;12.40;99.90;;;;;;5035887;28;20076;-71
2022/09/25 00:54:22;;;;;;;41.92;27.25;;;12.40;99.90;;;;;;5035572;28;19924;-71
2022/09/25 00:56:51;;;;;;;40.33;27.15;;;12.20;99.90;;;;;;5035466;28;20044;-72
2022/09/25 00:59:24;;;;;;;38.38;26.13;;;12.10;99.90;;;;;;5034301;28;20025;-70
2022/09/25 01:01:50;;;;;;;37.28;23.58;;;12.10;99.90;;;;;;5035106;28;20163;-71
2022/09/25 01:04:18;;;;;;;32.42;21.23;;;12.10;99.90;;;;;;5032936;28;20021;-68
2022/09/25 01:06:44;;;;;;;28.42;17.35;;;12.10;99.90;;;;;;5035895;28;20498;-72
2022/09/25 01:09:10;;;;;;;29.10;18.35;;;12.10;99.90;;;;;;5035010;28;20030;-72
2022/09/25 01:11:36;;;;;;;29.35;19.48;;;12.10;99.90;;;;;;5035159;28;20116;-70
2022/09/25 01:14:05;;;;;;;27.50;19.08;;;12.10;99.90;;;;;;5035552;28;20049;-72
2022/09/25 01:16:47;;;;;;;29.48;18.60;;;12.20;99.90;;;;;;5040114;28;20029;-71
2022/09/25 01:19:43;;;;;;;27.43;17.40;;;12.20;99.90;;;;;;5035016;28;20029;-71
2022/09/25 01:22:46;;;;;;;30.05;19.83;;;12.20;99.90;;;;;;5024347;28;20290;-72
2022/09/25 01:25:37;;;;;;;27.73;18.45;;;12.20;99.90;;;;;;5024411;28;20029;-71
2022/09/25 01:28:25;;;;;;;28.02;19.90;;;12.10;99.90;;;;;;5034364;28;20026;-70
2022/09/25 01:30:57;;;;;;;33.97;21.52;;;12.10;99.90;;;;;;5034716;28;20033;-71
2022/09/25 01:33:42;;;;;;;31.08;21.05;;;12.10;99.90;;;;;;5034617;28;20037;-69
2022/09/25 01:36:24;;;;;;;27.55;20.15;;;12.10;99.90;;;;;;5033487;28;20029;-69
2022/09/25 01:39:15;;;;;;;32.88;21.02;;;12.10;99.90;;;;;;5034616;28;20034;-71
2022/09/25 01:42:02;;;;;;;33.67;23.40;;;12.10;99.90;;;;;;5034483;28;20028;-71
2022/09/25 01:44:32;;;;;;;28.65;18.30;;;12.10;99.90;;;;;;5034492;28;20156;-71
2022/09/25 01:47:17;;;;;;;33.58;18.60;;;12.10;99.90;;;;;;5034841;28;20041;-65
2022/09/25 01:49:56;;;;;;;34.47;21.88;;;12.10;99.90;;;;;;5034244;28;20033;-71
2022/09/25 01:52:28;;;;;;;29.00;20.77;;;12.20;99.90;;;;;;5022037;28;20048;-70
2022/09/25 01:55:18;;;;;;;26.65;17.77;;;12.10;99.90;;;;;;5034228;28;20379;-71
2022/09/25 01:58:09;;;;;;;26.15;18.45;;;12.00;99.90;;;;;;5033873;28;20084;-71
2022/09/25 02:00:40;;;;;;;25.95;17.10;;;12.00;99.90;;;;;;5024020;28;20353;-72
2022/09/25 02:03:20;;;;;;;27.48;16.40;;;12.00;99.90;;;;;;5034051;28;20392;-71
2022/09/25 02:05:53;;;;;;;25.48;16.13;;;11.90;99.90;;;;;;5033366;28;20033;-70
2022/09/25 02:08:35;;;;;;;27.90;16.65;;;11.90;99.90;;;;;;5041227;28;20033;-72
2022/09/25 02:11:05;;;;;;;26.33;15.70;;;11.90;99.90;;;;;;5034047;28;20357;-71
2022/09/25 02:13:46;;;;;;;26.67;16.20;;;11.90;99.90;;;;;;5033806;28;20087;-71
2022/09/25 02:16:17;;;;;;;23.38;15.63;;;11.80;99.90;;;;;;5033956;28;20025;-71
2022/09/25 02:21:51;;;;;;;24.45;14.85;;;11.80;99.90;;;;;;5033888;28;20112;-71
2022/09/25 02:24:29;;;;;;;20.88;14.00;;;11.80;99.90;;;;;;5022719;28;20415;-72
2022/09/25 02:26:55;;;;;;;25.55;15.90;;;11.80;99.90;;;;;;5033743;28;20040;-72
2022/09/25 02:29:22;;;;;;;24.60;14.80;;;11.80;99.90;;;;;;5033527;28;20037;-72
2022/09/25 02:32:06;;;;;;;29.77;15.80;;;11.70;99.90;;;;;;5033044;28;20037;-72
2022/09/25 02:34:32;;;;;;;23.60;14.95;;;11.70;99.90;;;;;;5042464;28;20191;-71
2022/09/25 02:36:58;;;;;;;27.45;16.40;;;11.60;99.90;;;;;;5038173;28;20092;-68
2022/09/25 02:39:27;;;;;;;22.33;15.40;;;11.60;99.90;;;;;;5032740;28;20087;-72
2022/09/25 02:42:23;;;;;;;25.88;17.35;;;11.50;99.90;;;;;;5033046;28;20041;-71
2022/09/25 02:45:01;;;;;;;28.88;18.55;;;11.50;99.90;;;;;;5023329;28;20044;-72
2022/09/25 02:48:01;;;;;;;24.25;16.27;;;11.40;99.90;;;;;;5032833;28;20112;-71
2022/09/25 02:50:45;;;;;;;28.52;15.90;;;11.40;99.90;;;;;;5032833;28;20043;-65
2022/09/25 02:53:27;;;;;;;22.88;15.82;;;11.40;99.90;;;;;;5032338;28;20037;-64
2022/09/25 02:55:59;;;;;;;24.73;15.43;;;11.40;99.90;;;;;;5032767;28;20039;-72
2022/09/25 02:58:45;;;;;;;25.52;16.25;;;11.40;99.90;;;;;;5033143;28;20044;-71
2022/09/25 03:01:15;;;;;;;24.65;15.25;;;11.30;99.90;;;;;;5032842;28;20464;-70
2022/09/25 03:03:44;;;;;;;22.55;15.43;;;11.30;99.90;;;;;;5032672;28;20033;-71
2022/09/25 03:06:10;;;;;;;24.88;14.32;;;11.30;99.90;;;;;;5032612;28;20033;-69
2022/09/25 03:08:42;;;;;;;23.05;14.77;;;11.30;99.90;;;;;;5037647;28;20100;-72
2022/09/25 03:11:14;;;;;;;24.63;14.25;;;11.30;99.90;;;;;;5032358;28;20033;-71
2022/09/25 03:13:40;;;;;;;22.98;14.25;;;11.30;99.90;;;;;;5032953;28;20021;-71
2022/09/25 03:16:24;;;;;;;22.35;14.00;;;11.20;99.90;;;;;;5032649;28;20071;-70
2022/09/25 03:18:50;;;;;;;22.00;14.80;;;11.30;99.90;;;;;;5032359;28;20026;-71
2022/09/25 03:21:16;;;;;;;23.63;14.57;;;11.20;99.90;;;;;;5032497;28;20026;-71
2022/09/25 03:23:42;;;;;;;20.15;13.70;;;11.30;99.90;;;;;;5032472;28;20080;-72
2022/09/25 03:26:08;;;;;;;28.98;15.75;;;11.30;99.90;;;;;;5032371;28;20034;-71
2022/09/25 03:28:34;;;;;;;25.30;14.45;;;11.30;99.90;;;;;;5032154;28;20030;-70
2022/09/25 03:31:05;;;;;;;22.60;14.30;;;11.40;99.90;;;;;;5032476;28;20391;-71
2022/09/25 03:33:39;;;;;;;25.15;16.58;;;11.40;99.90;;;;;;5032107;28;20033;-71
2022/09/25 03:36:11;;;;;;;24.45;13.65;;;11.40;99.90;;;;;;5015504;28;20464;-71
2022/09/25 03:38:40;;;;;;;21.57;14.20;;;11.40;99.90;;;;;;5014719;28;20121;-72
2022/09/25 03:41:07;;;;;;;25.08;14.52;;;11.40;99.90;;;;;;5032230;28;20100;-71
2022/09/25 03:43:35;;;;;;;24.77;15.00;;;11.50;99.90;;;;;;5032021;28;20026;-69
2022/09/25 03:46:05;;;;;;;25.33;15.05;;;11.50;99.90;;;;;;5031594;28;20056;-71
2022/09/25 03:48:31;;;;;;;26.65;15.20;;;11.50;99.90;;;;;;5031872;28;20467;-70
2022/09/25 03:50:57;;;;;;;28.38;15.10;;;11.40;99.90;;;;;;5031478;28;20052;-71
2022/09/25 03:53:24;;;;;;;27.00;17.63;;;11.50;99.90;;;;;;5032007;28;20386;-67
2022/09/25 03:55:50;;;;;;;25.30;15.50;;;11.50;99.90;;;;;;5032184;28;20053;-71
2022/09/25 03:58:17;;;;;;;29.33;16.45;;;11.60;99.90;;;;;;5031694;28;20067;-72
2022/09/25 04:00:46;;;;;;;24.83;16.13;;;11.60;99.90;;;;;;5035630;28;20071;-71
2022/09/25 04:03:13;;;;;;;26.90;17.08;;;11.60;99.90;;;;;;5036017;28;20411;-71
2022/09/25 04:05:39;;;;;;;32.00;17.15;;;11.60;99.90;;;;;;5035663;28;20041;-70
2022/09/25 04:08:05;;;;;;;24.45;15.68;;;11.60;99.90;;;;;;5043496;28;20442;-70
2022/09/25 04:10:31;;;;;;;25.10;16.90;;;11.60;99.90;;;;;;5035812;28;20065;-72
2022/09/25 04:12:57;;;;;;;28.73;17.25;;;11.70;99.90;;;;;;5035587;28;20391;-71
2022/09/25 04:15:24;;;;;;;30.98;19.83;;;11.70;99.90;;;;;;5035719;28;20024;-72
2022/09/25 04:17:51;;;;;;;34.20;21.10;;;11.70;99.90;;;;;;5036048;28;20037;-62
2022/09/25 04:20:18;;;;;;;45.75;28.23;;;11.70;99.90;;;;;;5036767;28;20152;-70
2022/09/25 04:22:44;;;;;;;51.63;30.65;;;11.80;99.90;;;;;;5035293;28;20018;-71
2022/09/25 04:25:11;;;;;;;42.40;26.73;;;11.80;99.90;;;;;;5035529;28;20467;-68
2022/09/25 04:27:37;;;;;;;41.70;26.35;;;11.80;99.90;;;;;;5018077;28;20079;-67
2022/09/25 04:30:04;;;;;;;42.53;25.58;;;11.90;99.90;;;;;;5035210;28;20034;-71
2022/09/25 04:35:14;;;;;;;31.52;20.70;;;11.90;99.90;;;;;;5035305;28;20036;-72
2022/09/25 04:37:40;;;;;;;34.97;22.38;;;11.90;99.90;;;;;;5035121;28;20029;-71
2022/09/25 04:40:07;;;;;;;41.25;25.65;;;11.90;99.90;;;;;;5035769;28;20030;-71
2022/09/25 04:42:32;;;;;;;38.25;25.50;;;11.90;99.90;;;;;;5035087;28;20025;-69
2022/09/25 04:44:58;;;;;;;35.38;22.52;;;11.90;99.90;;;;;;5041222;28;20033;-72
2022/09/25 04:47:28;;;;;;;27.77;18.45;;;11.90;99.90;;;;;;5037830;28;20124;-71
2022/09/25 04:49:55;;;;;;;31.02;17.55;;;11.80;99.90;;;;;;5045520;28;20112;-69
2022/09/25 04:52:21;;;;;;;27.10;16.52;;;11.80;99.90;;;;;;5034309;28;20365;-70
2022/09/25 04:54:47;;;;;;;24.35;15.88;;;11.80;99.90;;;;;;5035220;28;20033;-71
2022/09/25 04:57:18;;;;;;;27.58;15.15;;;11.80;99.90;;;;;;5035096;28;20026;-70
2022/09/25 04:59:44;;;;;;;24.70;16.25;;;11.90;99.90;;;;;;5035075;28;20494;-69
2022/09/25 05:02:11;;;;;;;28.83;17.08;;;12.00;99.90;;;;;;5035074;28;20029;-67
2022/09/25 05:04:37;;;;;;;25.85;16.88;;;12.00;99.90;;;;;;5033738;28;20033;-69
2022/09/25 05:07:04;;;;;;;31.58;17.35;;;12.10;99.90;;;;;;5029555;28;20560;-69
2022/09/25 05:09:30;;;;;;;26.98;14.73;;;12.10;99.90;;;;;;5032065;28;20025;-70
2022/09/25 05:11:56;;;;;;;28.25;16.25;;;12.20;99.90;;;;;;5028201;28;20037;-71
2022/09/25 05:14:22;;;;;;;21.67;14.35;;;12.30;99.90;;;;;;5033377;28;20029;-69
2022/09/25 05:16:48;;;;;;;25.58;16.63;;;12.30;99.90;;;;;;5034906;28;20025;-71
2022/09/25 05:19:14;;;;;;;22.98;15.77;;;12.40;99.90;;;;;;5034890;28;20040;-70
2022/09/25 05:21:41;;;;;;;24.70;16.38;;;12.30;99.90;;;;;;5033758;28;20472;-71
2022/09/25 05:24:08;;;;;;;30.67;17.15;;;12.40;99.90;;;;;;5034724;28;20357;-70
2022/09/25 05:26:36;;;;;;;28.55;18.30;;;12.40;99.90;;;;;;5034501;28;20530;-71
2022/09/25 05:29:04;;;;;;;30.38;17.27;;;12.50;99.90;;;;;;5033614;28;20026;-65
2022/09/25 05:31:30;;;;;;;26.23;17.05;;;12.60;99.90;;;;;;5013497;28;20091;-71
2022/09/25 05:33:57;;;;;;;24.33;17.48;;;12.60;99.90;;;;;;5030831;28;20356;-70
2022/09/25 05:36:23;;;;;;;27.42;17.85;;;12.60;99.90;;;;;;5054246;28;20063;-70
2022/09/25 05:38:48;;;;;;;28.50;18.48;;;12.70;99.90;;;;;;5053523;28;20529;-69
2022/09/25 05:41:15;;;;;;;29.38;17.95;;;12.80;99.90;;;;;;5053853;28;20376;-71
2022/09/25 05:43:45;;;;;;;26.23;17.98;;;12.90;99.90;;;;;;5044916;28;20048;-71
2022/09/25 05:46:11;;;;;;;27.23;17.27;;;12.90;99.90;;;;;;5053951;28;20092;-71
2022/09/25 05:48:37;;;;;;;23.33;15.13;;;12.80;99.90;;;;;;5050360;28;20021;-70
2022/09/25 05:51:03;;;;;;;22.65;14.85;;;13.00;99.90;;;;;;5033859;28;20361;-70
2022/09/25 05:53:29;;;;;;;22.52;12.65;;;13.30;99.90;;;;;;5040927;28;20040;-68
2022/09/25 05:55:58;;;;;;;18.55;11.18;;;13.60;99.90;;;;;;5033502;28;20124;-70
2022/09/25 05:58:28;;;;;;;17.30;10.95;;;13.80;99.90;;;;;;5053637;28;20096;-70
2022/09/25 06:00:54;;;;;;;28.45;11.50;;;14.20;99.90;;;;;;5053571;28;20029;-70
2022/09/25 06:03:20;;;;;;;25.02;12.05;;;14.40;99.90;;;;;;5053571;28;20091;-69
2022/09/25 06:05:47;;;;;;;21.63;11.60;;;14.60;99.90;;;;;;5053078;28;20044;-71
2022/09/25 06:08:14;;;;;;;17.65;10.90;;;14.80;99.90;;;;;;5053331;28;20060;-71
2022/09/25 06:10:41;;;;;;;21.85;13.30;;;15.00;99.90;;;;;;5042645;28;20048;-71
2022/09/25 06:13:07;;;;;;;22.38;11.98;;;15.30;99.90;;;;;;5051264;28;20115;-70
2022/09/25 06:15:36;;;;;;;23.42;11.55;;;15.50;99.90;;;;;;5033713;28;20053;-71
2022/09/25 06:18:03;;;;;;;17.88;11.55;;;15.80;99.90;;;;;;5033880;28;20420;-71
2022/09/25 06:20:29;;;;;;;29.73;12.05;;;16.20;99.90;;;;;;5033697;28;20084;-70
2022/09/25 06:22:56;;;;;;;17.73;10.98;;;16.60;99.90;;;;;;5041834;28;20021;-69
2022/09/25 06:25:25;;;;;;;18.40;9.82;;;16.70;99.90;;;;;;5041025;28;20556;-70
2022/09/25 06:27:59;;;;;;;17.83;9.73;;;16.90;99.90;;;;;;5033228;28;20105;-71
2022/09/25 06:30:29;;;;;;;17.55;11.32;;;17.00;99.90;;;;;;5033523;28;20375;-70
2022/09/25 06:32:56;;;;;;;16.25;9.50;;;17.10;99.90;;;;;;5026385;28;20088;-70
2022/09/25 06:35:22;;;;;;;19.67;9.95;;;17.00;99.90;;;;;;5033046;28;20044;-71
2022/09/25 06:37:48;;;;;;;18.77;9.95;;;17.10;99.90;;;;;;5042410;28;20091;-71
2022/09/25 06:40:14;;;;;;;17.88;9.57;;;17.00;98.70;;;;;;5033240;28;20025;-69
2022/09/25 06:42:40;;;;;;;16.33;10.02;;;17.20;99.90;;;;;;5047132;28;20033;-69
2022/09/25 06:45:09;;;;;;;16.50;9.18;;;17.20;99.90;;;;;;5029165;28;20021;-69
2022/09/25 06:47:35;;;;;;;15.20;8.85;;;17.40;99.70;;;;;;5043142;28;20392;-70
2022/09/25 06:50:01;;;;;;;13.70;8.75;;;16.60;99.90;;;;;;5032589;28;20025;-70
2022/09/25 06:52:27;;;;;;;16.10;10.20;;;16.70;99.90;;;;;;5032459;28;20044;-70
2022/09/25 06:54:52;;;;;;;15.82;9.35;;;17.10;99.90;;;;;;5032277;28;20021;-70
2022/09/25 06:57:18;;;;;;;16.35;9.07;;;17.30;99.90;;;;;;5014998;28;20124;-68
2022/09/25 06:59:44;;;;;;;17.27;9.43;;;17.20;99.90;;;;;;5032961;28;20021;-70
2022/09/25 07:04:54;;;;;;;16.00;9.25;;;17.30;99.90;;;;;;5031258;28;20064;-68
2022/09/25 07:07:20;;;;;;;13.45;7.20;;;17.50;99.90;;;;;;5034342;28;20076;-69
2022/09/25 07:09:49;;;;;;;14.43;7.65;;;17.40;99.90;;;;;;5050817;28;20029;-71
2022/09/25 07:12:20;;;;;;;11.95;6.50;;;17.50;99.90;;;;;;5048151;28;20032;-70
2022/09/25 07:14:46;;;;;;;12.05;6.93;;;17.90;98.90;;;;;;5046688;28;20029;-70
2022/09/25 07:17:13;;;;;;;13.32;6.32;;;17.80;97.30;;;;;;5051064;28;20139;-69
2022/09/25 07:19:39;;;;;;;10.00;4.80;;;17.80;94.90;;;;;;5032354;28;20044;-70
2022/09/25 07:22:05;;;;;;;14.13;6.28;;;17.80;92.30;;;;;;5032358;28;20472;-70
2022/09/25 07:24:31;;;;;;;10.15;5.93;;;18.20;95.50;;;;;;5049518;28;20021;-69
2022/09/25 07:26:57;;;;;;;12.73;5.97;;;18.40;93.00;;;;;;5046620;28;20021;-71
2022/09/25 07:29:23;;;;;;;11.60;6.13;;;18.60;99.90;;;;;;5032265;28;20088;-70
2022/09/25 07:31:49;;;;;;;11.77;6.72;;;18.50;93.90;;;;;;5032343;28;20034;-70
2022/09/25 07:34:15;;;;;;;9.07;5.43;;;18.50;99.90;;;;;;5043895;28;20025;-70
2022/09/25 07:36:41;;;;;;;8.35;5.47;;;18.30;95.60;;;;;;5048745;28;20542;-70
2022/09/25 07:39:08;;;;;;;11.95;5.55;;;18.00;94.50;;;;;;5051937;28;20031;-71
2022/09/25 07:41:35;;;;;;;12.77;5.95;;;18.30;95.60;;;;;;5033655;28;20014;-69
2022/09/25 07:44:01;;;;;;;9.88;5.75;;;18.40;96.20;;;;;;5032251;28;20491;-70
2022/09/25 07:46:27;;;;;;;71.05;16.45;;;18.20;96.40;;;;;;5030860;28;20024;-70
2022/09/25 07:48:54;;;;;;;9.27;4.82;;;18.30;94.10;;;;;;5030689;28;20424;-70
2022/09/25 07:51:20;;;;;;;9.95;4.95;;;18.50;95.00;;;;;;5031640;28;20030;-69
2022/09/25 07:53:47;;;;;;;10.82;5.45;;;18.70;93.50;;;;;;5031689;28;20431;-71
2022/09/25 07:56:13;;;;;;;172.90;32.03;;;18.70;95.10;;;;;;5037780;28;20029;-70
2022/09/25 07:58:40;;;;;;;12.77;5.53;;;18.90;93.80;;;;;;5038433;28;20029;-70
2022/09/25 08:01:09;;;;;;;239.90;40.05;;;18.90;92.70;;;;;;5045868;28;20017;-71
2022/09/25 08:03:35;;;;;;;9.10;5.22;;;19.00;94.60;;;;;;5032011;28;20479;-70
2022/09/25 08:06:10;;;;;;;8.50;5.75;;;19.10;96.50;;;;;;5040794;28;20131;-70
2022/09/25 08:08:37;;;;;;;8.65;5.47;;;19.10;94.50;;;;;;5051704;28;20372;-70
2022/09/25 08:11:06;;;;;;;12.82;5.40;;;19.30;95.30;;;;;;5036846;28;20040;-70
2022/09/25 08:13:32;;;;;;;8.20;5.30;;;19.60;95.10;;;;;;5029221;28;20029;-70
2022/09/25 08:16:00;;;;;;;8.95;5.55;;;19.30;93.90;;;;;;5031367;28;20032;-69
2022/09/25 08:18:26;;;;;;;17.50;6.70;;;19.60;95.30;;;;;;5044196;28;20028;-66
2022/09/25 08:20:52;;;;;;;9.48;5.20;;;19.60;94.40;;;;;;5049063;28;20021;-70
2022/09/25 08:23:18;;;;;;;14.00;5.60;;;19.70;93.00;;;;;;5050017;28;20021;-70
2022/09/25 08:25:48;;;;;;;8.23;5.30;;;19.80;95.20;;;;;;5035376;28;20017;-70
2022/09/25 08:28:15;;;;;;;12.82;5.43;;;19.90;95.70;;;;;;5032711;28;20143;-69
2022/09/25 08:30:42;;;;;;;11.35;5.15;;;20.00;96.10;;;;;;5051474;28;20021;-69
2022/09/25 08:33:12;;;;;;;17.63;5.60;;;19.70;95.90;;;;;;5046702;28;20055;-70
2022/09/25 08:35:40;;;;;;;10.77;5.70;;;19.80;99.90;;;;;;5041865;28;20025;-70
2022/09/25 08:38:06;;;;;;;8.35;4.78;;;19.90;99.90;;;;;;5045785;28;20033;-70
2022/09/25 08:40:37;;;;;;;8.95;4.38;;;20.00;99.90;;;;;;5051250;28;20029;-64
2022/09/25 08:43:04;;;;;;;9.43;5.22;;;20.40;99.90;;;;;;5048712;28;20461;-70
2022/09/25 08:51:18;;;;;;;7.45;4.00;;;20.70;94.70;;;;;;5035442;28;20035;-70
2022/09/25 08:53:45;;;;;;;9.90;5.00;;;21.00;94.90;;;;;;5035235;28;20104;-71
2022/09/25 08:56:16;;;;;;;7.90;4.75;;;21.20;96.00;;;;;;5035744;28;20053;-69
2022/09/25 08:59:22;;;;;;;7.63;3.92;;;21.40;98.50;;;;;;5035420;28;20060;-70
2022/09/25 09:02:01;;;;;;;6.47;4.22;;;20.70;93.50;;;;;;4946551;29;20043;-70
2022/09/25 09:04:27;;;;;;;8.90;4.82;;;20.70;94.50;;;;;;4950842;29;20490;-69
2022/09/25 09:06:59;;;;;;;8.25;4.50;;;20.90;95.10;;;;;;4939259;28;20147;-70
2022/09/25 09:09:33;;;;;;;8.35;4.80;;;21.10;92.80;;;;;;4934893;29;20032;-69
2022/09/25 09:12:20;;;;;;;7.30;4.43;;;21.30;93.90;;;;;;4933815;29;20054;-70
2022/09/25 09:14:50;;;;;;;9.85;5.13;;;21.20;95.50;;;;;;4934403;29;20054;-70
2022/09/25 09:17:21;;;;;;;9.55;5.25;;;21.30;94.00;;;;;;4934732;29;20059;-71
2022/09/25 09:20:14;;;;;;;7.95;4.50;;;21.40;93.70;;;;;;4934869;29;20040;-70
2022/09/25 09:22:48;;;;;;;7.68;4.03;;;21.10;93.20;;;;;;4942571;29;20497;-70
2022/09/25 09:25:14;;;;;;;9.77;4.47;;;21.30;93.20;;;;;;4941318;29;20039;-69
2022/09/25 09:28:05;;;;;;;7.30;4.25;;;21.50;93.50;;;;;;4937323;29;20034;-69
2022/09/25 09:30:45;;;;;;;8.15;4.93;;;21.50;93.00;;;;;;4941575;29;20049;-70
2022/09/25 09:33:21;;;;;;;11.50;5.93;;;21.50;93.30;;;;;;4942428;29;20078;-68
2022/09/25 09:36:04;;;;;;;9.13;4.95;;;21.50;94.30;;;;;;4953132;29;20035;-68
2022/09/25 09:38:52;;;;;;;8.60;4.47;;;21.40;93.80;;;;;;5030860;28;20112;-69
2022/09/25 09:41:42;;;;;;;6.78;4.18;;;21.40;93.80;;;;;;5032745;28;20480;-69
2022/09/25 09:44:49;;;;;;;6.28;3.95;;;21.40;92.80;;;;;;5034100;28;20083;-69
2022/09/25 09:47:27;;;;;;;7.13;3.75;;;21.50;93.10;;;;;;5034154;28;20033;-69
2022/09/25 09:50:39;;;;;;;7.57;4.30;;;21.50;92.90;;;;;;5033390;28;20025;-67
2022/09/25 09:53:26;;;;;;;12.57;4.22;;;21.60;93.40;;;;;;4966759;28;20055;-69
2022/09/25 09:56:01;;;;;;;8.82;3.70;;;21.80;94.20;;;;;;4952949;28;20078;-69
2022/09/25 09:58:41;;;;;;;8.82;4.75;;;21.80;94.80;;;;;;4952140;29;20035;-69
2022/09/25 10:01:09;;;;;;;8.65;4.22;;;21.70;94.00;;;;;;4953159;29;20171;-69
2022/09/25 10:03:38;;;;;;;5.68;3.55;;;21.50;95.80;;;;;;4949020;29;20123;-68
2022/09/25 10:06:10;;;;;;;9.35;4.53;;;21.70;95.30;;;;;;4949554;28;20130;-68
2022/09/25 10:08:36;;;;;;;;;;;21.80;94.60;;;;;;4952462;29;20114;-69
2022/09/25 10:11:10;;;;;;;8.60;3.50;;;21.50;96.00;;;;;;4952311;29;20432;-70
2022/09/25 10:13:38;;;;;;;7.68;4.32;;;21.30;95.30;;;;;;4952280;29;20652;-68
2022/09/25 10:16:05;;;;;;;7.25;3.90;;;21.50;96.20;;;;;;4952875;29;20034;-69
2022/09/25 10:18:39;;;;;;;11.18;4.70;;;21.60;94.50;;;;;;4952819;29;20038;-68
2022/09/25 10:21:17;;;;;;;8.90;4.07;;;21.60;95.80;;;;;;4952959;29;20079;-63
2022/09/25 10:23:46;;;;;;;6.00;3.60;;;21.70;95.10;;;;;;4952773;29;20039;-68
2022/09/25 10:26:29;;;;;;;5.50;3.33;;;21.30;94.60;;;;;;4952686;29;20024;-69
2022/09/25 10:28:58;;;;;;;6.60;3.90;;;21.00;94.20;;;;;;4965252;28;20049;-62
2022/09/25 10:31:31;;;;;;;7.75;3.75;;;21.10;94.50;;;;;;5033515;28;20364;-68
2022/09/25 10:34:18;;;;;;;11.00;4.57;;;20.80;93.80;;;;;;5033461;28;20021;-69
2022/09/25 10:36:47;;;;;;;5.70;3.20;;;21.00;95.00;;;;;;5032934;28;20025;-69
2022/09/25 10:39:31;;;;;;;5.55;3.30;;;21.20;99.40;;;;;;5032723;28;20391;-63
2022/09/25 10:41:58;;;;;;;7.07;3.25;;;21.40;99.90;;;;;;5032989;28;20022;-69
2022/09/25 10:44:33;;;;;;;5.55;2.72;;;21.50;97.60;;;;;;5032487;28;20036;-69
2022/09/25 10:50:22;;;;;;;6.18;3.40;;;21.70;99.90;;;;;;5032707;28;20091;-68
2022/09/25 10:52:58;;;;;;;10.77;3.88;;;21.70;98.60;;;;;;5031919;28;20048;-69
2022/09/25 10:55:30;;;;;;;5.40;2.97;;;21.70;98.10;;;;;;5032870;28;20088;-69
2022/09/25 10:58:08;;;;;;;5.05;3.35;;;21.70;97.80;;;;;;5014624;28;20453;-69
2022/09/25 11:00:52;;;;;;;4.93;2.88;;;21.90;99.90;;;;;;5033015;28;20072;-68
2022/09/25 11:03:27;;;;;;;4.78;2.60;;;22.10;99.00;;;;;;5032763;28;20542;-69
2022/09/25 11:06:09;;;;;;;6.88;3.00;;;21.90;99.00;;;;;;5032350;28;20117;-70
2022/09/25 11:08:40;;;;;;;7.32;3.55;;;21.70;99.20;;;;;;5044526;28;20042;-69
2022/09/25 11:11:08;;;;;;;7.28;2.92;;;21.60;98.90;;;;;;5032675;28;20471;-69
2022/09/25 11:13:49;;;;;;;6.38;3.13;;;21.50;98.40;;;;;;5032776;28;20024;-69
2022/09/25 11:16:16;;;;;;;11.13;3.00;;;21.30;98.70;;;;;;5033100;28;20124;-69
2022/09/25 11:18:42;;;;;;;5.60;2.95;;;21.20;99.90;;;;;;5032403;28;20025;-69
2022/09/25 11:21:30;;;;;;;7.32;3.15;;;21.10;98.90;;;;;;5032459;28;20040;-69
2022/09/25 11:24:19;;;;;;;5.05;2.60;;;20.90;99.90;;;;;;5031667;28;20021;-69
2022/09/25 11:27:06;;;;;;;7.53;2.85;;;20.80;97.70;;;;;;5030864;28;20480;-69
2022/09/25 11:30:23;;;;;;;6.03;3.13;;;20.70;99.90;;;;;;5031073;28;20036;-70
2022/09/25 11:32:58;;;;;;;48.35;11.65;;;20.70;99.80;;;;;;4950571;28;20402;-70
2022/09/25 11:36:03;;;;;;;7.90;3.55;;;20.60;99.00;;;;;;4967214;28;20051;-69
2022/09/25 11:41:44;;;;;;;22.60;4.55;;;20.50;98.50;;;;;;4971295;28;20026;-69
2022/09/25 11:44:32;;;;;;;6.43;3.22;;;20.40;98.30;;;;;;4953599;28;20035;-69
2022/09/25 11:47:14;;;;;;;4.35;2.88;;;20.40;98.30;;;;;;4952113;28;20036;-69
2022/09/25 11:49:41;;;;;;;7.63;3.30;;;20.40;99.00;;;;;;4951790;28;20486;-69
2022/09/25 11:52:22;;;;;;;5.30;3.08;;;20.50;97.70;;;;;;4952146;28;20134;-69
2022/09/25 11:55:13;;;;;;;4.05;2.60;;;20.50;98.40;;;;;;4940092;28;20736;-69
2022/09/25 11:58:03;;;;;;;6.70;2.88;;;20.60;97.40;;;;;;4952032;28;20572;-69
2022/09/25 12:00:45;;;;;;;4.07;2.22;;;20.60;96.70;;;;;;4952423;28;20141;-69
2022/09/25 12:03:14;;;;;;;14.73;3.55;;;20.60;98.10;;;;;;4952073;28;20119;-69
2022/09/25 12:06:01;;;;;;;4.15;2.30;;;20.60;98.50;;;;;;4951829;28;20134;-69
2022/09/25 12:09:09;;;;;;;9.07;2.90;;;20.70;98.80;;;;;;5002480;28;20038;-69
2022/09/25 12:11:48;;;;;;;3.85;2.40;;;20.70;97.70;;;;;;5031676;28;20093;-69
2022/09/25 12:14:15;;;;;;;5.25;2.50;;;20.70;98.30;;;;;;5031954;28;20029;-69
2022/09/25 12:17:02;;;;;;;4.85;3.33;;;20.60;99.90;;;;;;5032119;28;20021;-69
2022/09/25 12:19:46;;;;;;;12.05;4.20;;;20.50;99.80;;;;;;5032096;28;20079;-69
2022/09/25 12:22:25;;;;;;;20.23;4.78;;;20.50;99.90;;;;;;5035842;28;20017;-68
2022/09/25 12:25:03;;;;;;;10.02;3.75;;;20.30;98.40;;;;;;5035251;28;20033;-69
2022/09/25 12:27:39;;;;;;;5.30;3.45;;;20.30;99.70;;;;;;5036009;28;20022;-70
2022/09/25 12:30:55;;;;;;;24.17;5.65;;;20.20;98.10;;;;;;5035747;28;20104;-69
2022/09/25 12:33:34;;;;;;;7.65;4.05;;;20.10;99.90;;;;;;4955390;29;20098;-69
2022/09/25 12:36:26;;;;;;;11.43;4.53;;;20.00;99.90;;;;;;4955560;29;20070;-69
2022/09/25 12:39:24;;;;;;;7.97;3.67;;;19.90;94.80;;;;;;4955311;29;20425;-69
2022/09/25 12:42:06;;;;;;;16.02;4.93;;;19.90;95.60;;;;;;4952186;29;20124;-67
2022/09/25 12:44:54;;;;;;;9.07;4.20;;;19.80;94.70;;;;;;4955185;29;20031;-69
2022/09/25 12:48:00;;;;;;;10.43;5.57;;;19.80;94.70;;;;;;4954985;28;20308;-69
2022/09/25 12:50:31;;;;;;;10.15;5.47;;;19.80;95.70;;;;;;4928650;29;20501;-65
2022/09/25 12:53:10;;;;;;;8.55;3.97;;;19.80;96.20;;;;;;4954743;29;20074;-70
2022/09/25 12:55:52;;;;;;;8.43;4.53;;;19.80;95.70;;;;;;4954973;28;20422;-69
2022/09/25 12:58:34;;;;;;;10.93;5.05;;;19.80;94.70;;;;;;4955251;29;20043;-69
2022/09/25 13:01:08;;;;;;;14.80;4.95;;;19.90;95.10;;;;;;4954946;29;20118;-69
2022/09/25 13:03:45;;;;;;;9.68;4.25;;;19.90;95.00;;;;;;4952110;29;20046;-69
2022/09/25 13:06:15;;;;;;;15.32;5.30;;;19.90;95.70;;;;;;4963394;28;20055;-69
2022/09/25 13:09:24;;;;;;;8.13;3.83;;;19.90;96.90;;;;;;5021004;28;20476;-69
2022/09/25 13:12:06;;;;;;;7.95;4.18;;;20.00;95.80;;;;;;5024828;28;20049;-68
2022/09/25 13:14:35;;;;;;;13.45;4.90;;;20.00;96.50;;;;;;5034684;28;20032;-69
2022/09/25 13:17:01;;;;;;;6.43;3.13;;;20.10;96.90;;;;;;5034319;28;20108;-69
2022/09/25 13:19:29;;;;;;;5.18;3.13;;;20.20;97.80;;;;;;5034185;28;20037;-69
2022/09/25 13:22:14;;;;;;;6.72;3.25;;;20.20;96.50;;;;;;5034335;28;20492;-69
2022/09/25 13:25:05;;;;;;;7.22;3.17;;;20.20;96.30;;;;;;5034490;28;20029;-69
2022/09/25 13:27:40;;;;;;;17.25;4.95;;;20.20;95.90;;;;;;5034920;28;20071;-68
2022/09/25 13:30:18;;;;;;;7.38;3.78;;;20.20;97.10;;;;;;5017233;28;20029;-67